createdAt,value
2022-10-13T00:02:34.444Z,77.4
2022-10-13T00:07:16.786Z,77.4
2022-10-13T00:12:23.200Z,77.6
2022-10-13T00:17:29.552Z,77.6
2022-10-13T00:22:59.976Z,77.7
2022-10-13T00:27:42.347Z,77.6
2022-10-13T00:32:48.823Z,77.7
2022-10-13T00:37:55.201Z,77.6
2022-10-13T00:43:01.656Z,77.6
2022-10-13T00:48:08.118Z,77.6
2022-10-13T00:53:34.573Z,77.7
2022-10-13T00:59:33.122Z,77.6
2022-10-13T01:03:27.296Z,77.7
2022-10-13T01:08:37.807Z,77.6
2022-10-13T01:14:00.298Z,77.6
2022-10-13T01:28:59.678Z,77.7
2022-10-13T01:35:18.224Z,77.7
2022-10-13T01:39:02.652Z,77.7
2022-10-13T01:44:09.160Z,77.8
2022-10-13T01:54:32.175Z,77.6
2022-10-13T01:59:38.441Z,77.9
2022-10-13T02:04:44.825Z,77.6
2022-10-13T02:09:51.225Z,77.3
2022-10-13T02:14:57.796Z,77.3
2022-10-13T02:20:04.167Z,77.6
2022-10-13T02:25:38.640Z,78.5
2022-10-13T02:31:30.636Z,78.8
2022-10-13T02:36:25.042Z,78.6
2022-10-13T02:40:31.311Z,78.9
2022-10-13T02:45:41.341Z,80.0
2022-10-13T02:50:47.660Z,79.9
2022-10-13T02:55:54.035Z,79.4
2022-10-13T03:01:20.595Z,80.5
2022-10-13T03:06:05.855Z,79.8
2022-10-13T03:11:13.256Z,80.1
2022-10-13T03:16:47.752Z,80.9
2022-10-13T03:21:46.042Z,80.1
2022-10-13T03:26:32.384Z,80.8
2022-10-13T03:32:02.831Z,80.5
2022-10-13T03:36:45.121Z,81.4
2022-10-13T03:42:51.617Z,81.2
2022-10-13T03:47:17.944Z,81.5
2022-10-13T03:52:04.334Z,81.5
2022-10-13T03:57:00.685Z,82.1
2022-10-13T04:02:21.588Z,82.8
2022-10-13T04:07:13.466Z,81.8
2022-10-13T04:12:49.900Z,81.8
2022-10-13T04:17:36.274Z,82.1
2022-10-13T04:22:56.869Z,82.4
2022-10-13T04:27:56.799Z,82.3
2022-10-13T04:32:59.245Z,82.0
2022-10-13T04:38:05.581Z,82.4
2022-10-13T04:43:11.944Z,83.3
2022-10-13T04:48:19.926Z,83.3
2022-10-13T04:53:26.374Z,83.0
2022-10-13T04:58:22.754Z,83.3
2022-10-13T05:03:39.281Z,83.2
2022-10-13T05:08:49.208Z,84.2
2022-10-13T05:13:55.820Z,83.5
2022-10-13T05:19:06.291Z,83.8
2022-10-13T05:24:08.584Z,84.7
2022-10-13T05:29:16.614Z,86.6
2022-10-13T05:34:23.009Z,86.1
2022-10-13T05:39:29.584Z,86.0
2022-10-13T05:44:36.173Z,86.3
2022-10-13T05:49:42.774Z,86.1
2022-10-13T06:00:29.402Z,87.9
2022-10-13T06:05:26.773Z,87.2
2022-10-13T06:11:27.236Z,86.5
2022-10-13T06:15:49.545Z,87.8
2022-10-13T06:21:20.023Z,88.1
2022-10-13T06:26:02.318Z,87.2
2022-10-13T06:31:08.691Z,88.0
2022-10-13T06:36:15.076Z,88.8
2022-10-13T06:41:21.522Z,88.8
2022-10-13T06:46:41.877Z,88.3
2022-10-13T06:51:24.216Z,89.3
2022-10-13T06:56:30.673Z,89.5
2022-10-13T07:01:41.348Z,90.2
2022-10-13T07:06:43.434Z,89.5
2022-10-13T07:12:03.866Z,90.0
2022-10-13T07:17:10.220Z,90.0
2022-10-13T07:22:12.590Z,90.2
2022-10-13T07:27:39.026Z,89.9
2022-10-13T07:32:25.343Z,90.9
2022-10-13T07:37:31.726Z,91.0
2022-10-13T07:42:38.238Z,91.3
2022-10-13T07:52:55.005Z,91.3
2022-10-13T07:57:57.399Z,91.2
2022-10-13T08:08:29.221Z,91.0
2022-10-13T08:13:36.577Z,90.9
2022-10-13T08:23:53.443Z,91.6
2022-10-13T08:33:42.279Z,92.1
2022-10-13T08:38:48.629Z,92.7
2022-10-13T08:44:33.969Z,92.6
2022-10-13T08:49:01.389Z,92.7
2022-10-13T08:53:57.751Z,92.4
2022-10-13T08:59:34.205Z,92.4
2022-10-13T09:04:20.518Z,92.1
2022-10-13T09:09:16.876Z,92.1
2022-10-13T09:19:59.799Z,91.9
2022-10-13T09:24:46.140Z,92.0
2022-10-13T09:29:52.515Z,92.1
2022-10-13T09:34:58.934Z,92.4
2022-10-13T09:40:25.362Z,92.4
2022-10-13T09:45:11.710Z,92.5
2022-10-13T09:55:38.663Z,92.8
2022-10-13T10:00:31.052Z,92.9
2022-10-13T10:05:57.528Z,92.9
2022-10-13T10:10:43.828Z,92.8
2022-10-13T10:15:40.171Z,92.7
2022-10-13T10:20:56.564Z,92.8
2022-10-13T10:26:26.624Z,93.0
2022-10-13T10:30:59.427Z,92.9
2022-10-13T10:36:05.830Z,93.0
2022-10-13T10:41:46.436Z,93.0
2022-10-13T10:46:52.805Z,93.0
2022-10-13T10:51:55.168Z,93.3
2022-10-13T10:56:41.522Z,93.7
2022-10-13T11:01:48.010Z,93.7
2022-10-13T11:07:01.864Z,93.4
2022-10-13T11:12:28.373Z,93.2
2022-10-13T11:22:16.226Z,92.4
2022-10-13T11:27:23.583Z,92.1
2022-10-13T11:32:20.324Z,91.8
2022-10-13T11:37:36.582Z,91.6
2022-10-13T11:42:42.787Z,91.5
2022-10-13T11:47:49.159Z,91.8
2022-10-13T11:52:55.638Z,91.5
2022-10-13T11:58:26.057Z,91.5
2022-10-13T12:02:58.431Z,91.3
2022-10-13T12:08:34.826Z,91.0
2022-10-13T12:13:21.256Z,90.8
2022-10-13T12:18:27.653Z,90.6
2022-10-13T12:23:34.128Z,90.4
2022-10-13T12:29:00.676Z,90.3
2022-10-13T12:33:46.936Z,90.2
2022-10-13T12:38:53.336Z,90.2
2022-10-13T12:43:49.703Z,90.2
2022-10-13T12:49:06.171Z,90.1
2022-10-13T12:54:36.596Z,90.1
2022-10-13T12:59:39.072Z,90.2
2022-10-13T13:04:25.544Z,90.2
2022-10-13T13:09:31.929Z,90.4
2022-10-13T13:14:38.332Z,90.6
2022-10-13T13:19:34.720Z,90.8
2022-10-13T13:24:50.078Z,90.9
2022-10-13T13:29:57.479Z,90.9
2022-10-13T13:35:03.983Z,91.1
2022-10-13T13:55:29.475Z,91.3
2022-10-13T14:00:35.966Z,91.4
2022-10-13T14:05:42.369Z,91.4
2022-10-13T14:31:14.312Z,91.6
2022-10-13T14:36:20.710Z,91.6
2022-10-13T14:41:17.129Z,91.8
2022-10-13T14:46:33.650Z,91.9
2022-10-13T14:51:40.023Z,91.8
2022-10-13T14:56:46.398Z,91.9
2022-10-13T15:01:52.815Z,91.9
2022-10-13T15:06:49.141Z,91.9
2022-10-13T15:12:05.685Z,92.1
2022-10-13T15:18:28.986Z,92.2
2022-10-13T15:22:08.518Z,92.4
2022-10-13T15:27:24.939Z,92.4
2022-10-13T15:42:44.080Z,93.2
2022-10-13T15:52:46.985Z,93.3
2022-10-13T15:58:03.379Z,93.5
2022-10-13T16:03:29.768Z,93.7
2022-10-13T16:13:22.515Z,94.4
2022-10-13T16:18:28.894Z,94.4
2022-10-13T16:23:35.249Z,94.5
2022-10-13T16:28:41.804Z,94.9
2022-10-13T16:33:48.081Z,94.7
2022-10-13T16:38:54.464Z,94.6
2022-10-13T16:44:00.913Z,94.6
2022-10-13T16:49:07.224Z,94.8
2022-10-13T16:54:04.602Z,94.7
2022-10-13T16:59:40.131Z,94.8
2022-10-13T17:05:16.643Z,94.8
2022-10-13T17:10:28.832Z,94.7
2022-10-13T17:16:53.100Z,94.7
2022-10-13T17:20:40.342Z,94.8
2022-10-13T17:25:46.732Z,95.0
2022-10-13T17:31:17.411Z,95.0
2022-10-13T17:35:59.764Z,95.1
2022-10-13T17:41:06.161Z,95.4
2022-10-13T17:46:38.447Z,95.4
2022-10-13T17:51:18.983Z,95.5
2022-10-13T17:56:49.458Z,95.8
2022-10-13T18:01:32.015Z,95.6
2022-10-13T18:06:38.825Z,95.6
2022-10-13T18:11:49.739Z,95.7
2022-10-13T18:40:37.980Z,95.2
2022-10-13T18:45:45.325Z,94.9
2022-10-13T18:50:51.730Z,95.0
2022-10-13T18:55:58.256Z,95.4
2022-10-13T19:01:04.677Z,95.4
2022-10-13T19:06:14.098Z,95.5
2022-10-13T19:11:20.526Z,95.7
2022-10-13T19:16:50.943Z,95.9
2022-10-13T19:21:23.298Z,96.0
2022-10-13T19:26:39.768Z,96.1
2022-10-13T19:32:00.186Z,96.3
2022-10-13T19:36:42.531Z,96.4
2022-10-13T19:41:58.970Z,96.3
2022-10-13T19:47:05.350Z,96.4
2022-10-13T19:52:11.832Z,96.3
2022-10-13T20:02:24.607Z,96.3
2022-10-13T20:07:30.973Z,96.3
2022-10-13T20:12:27.367Z,96.3
2022-10-13T20:18:07.902Z,96.4
2022-10-13T20:23:10.382Z,96.4
2022-10-13T20:29:09.047Z,96.4
2022-10-13T20:33:03.125Z,96.6
2022-10-13T20:43:15.886Z,96.6
2022-10-13T20:48:22.402Z,96.7
2022-10-13T20:53:52.825Z,97.1
2022-10-13T20:58:25.115Z,97.2
2022-10-13T21:04:01.583Z,97.2
2022-10-13T21:08:47.920Z,96.8
2022-10-13T21:18:50.683Z,97.6
2022-10-13T21:29:17.556Z,97.4
2022-10-13T21:34:20.050Z,97.8
2022-10-13T21:44:32.841Z,98.2
2022-10-13T21:49:59.266Z,98.2
2022-10-13T22:00:12.217Z,98.3
2022-10-13T22:04:58.584Z,98.4
2022-10-13T22:15:35.605Z,98.7
2022-10-13T22:20:17.887Z,98.9
2022-10-13T22:26:36.396Z,98.6
2022-10-13T22:30:20.616Z,98.8
2022-10-13T22:36:21.124Z,98.9
2022-10-13T22:40:43.406Z,99.2
2022-10-13T22:45:49.795Z,98.8
2022-10-13T22:51:20.213Z,99.5
2022-10-13T22:56:46.649Z,99.0
2022-10-13T23:06:15.301Z,99.1
2022-10-13T23:16:28.297Z,98.8
2022-10-13T23:26:41.078Z,98.9
2022-10-13T23:31:47.479Z,98.8
2022-10-13T23:36:53.822Z,98.7
2022-10-13T23:47:10.172Z,99.0
2022-10-13T23:52:16.552Z,99.6
2022-10-13T23:57:23.331Z,99.2
